Indianapolis, Indiana
Traffic Map
Current Weather Conditions
Indianapolis, Indiana
Scattered Clouds
Scattered Clouds
77°
Feels Like: 79°
Wind Chill: 77° Ceiling: Unl
Heat Index: 79° Visibility: 10mi
Dew Point: 70° Wind: 12mph
Humidity: 79% Direction: 190° (S)
Pressure: 29.94in Gusts: 0mph
Raw Report DataKIND 070454Z 19010KT 10SM FEW030 SCT250 25/21 A2994 RMK AO2 SLP130 T02500211 402940172
Traffic Incident Summary
Active as of:
Severity:
Category:
InformationThere was an issue retrieving the traffic information for this location. Please try a different location or try again shortly.
Advertisements
Track Severe Weather on mobile